sensor_id;sensor_type;location;lat;lon;timestamp;temperature;humidity
52275;DHT22;38228;50.940;4.024;2024-03-02T00:00:19;7.50;99.90
52275;DHT22;38228;50.940;4.024;2024-03-02T00:02:49;7.50;99.90
52275;DHT22;38228;50.940;4.024;2024-03-02T00:05:19;7.50;99.90
52275;DHT22;38228;50.940;4.024;2024-03-02T00:07:55;7.50;99.90
52275;DHT22;38228;50.940;4.024;2024-03-02T00:10:24;7.50;99.90
52275;DHT22;38228;50.940;4.024;2024-03-02T00:12:54;7.50;99.90
52275;DHT22;38228;50.940;4.024;2024-03-02T00:15:46;7.50;99.90
52275;DHT22;38228;50.940;4.024;2024-03-02T00:18:18;7.50;99.90
52275;DHT22;38228;50.940;4.024;2024-03-02T00:20:44;7.50;99.90
52275;DHT22;38228;50.940;4.024;2024-03-02T00:23:10;7.50;99.90
52275;DHT22;38228;50.940;4.024;2024-03-02T00:25:43;7.60;99.90
52275;DHT22;38228;50.940;4.024;2024-03-02T00:28:21;7.50;99.90
52275;DHT22;38228;50.940;4.024;2024-03-02T00:30:55;7.50;99.90
52275;DHT22;38228;50.940;4.024;2024-03-02T00:33:22;7.60;99.90
52275;DHT22;38228;50.940;4.024;2024-03-02T00:35:52;7.60;99.90
52275;DHT22;38228;50.940;4.024;2024-03-02T00:38:17;7.50;99.90
52275;DHT22;38228;50.940;4.024;2024-03-02T00:40:44;7.50;99.90
52275;DHT22;38228;50.940;4.024;2024-03-02T00:46:16;7.50;99.90
52275;DHT22;38228;50.940;4.024;2024-03-02T00:51:17;7.60;99.90
52275;DHT22;38228;50.940;4.024;2024-03-02T00:53:43;7.60;99.90
52275;DHT22;38228;50.940;4.024;2024-03-02T00:56:12;7.70;99.90
52275;DHT22;38228;50.940;4.024;2024-03-02T00:58:38;7.70;99.90
52275;DHT22;38228;50.940;4.024;2024-03-02T01:01:04;7.60;99.90
52275;DHT22;38228;50.940;4.024;2024-03-02T01:03:31;7.60;99.90
52275;DHT22;38228;50.940;4.024;2024-03-02T01:05:57;7.50;99.90
52275;DHT22;38228;50.940;4.024;2024-03-02T01:08:24;7.50;99.90
52275;DHT22;38228;50.940;4.024;2024-03-02T01:10:50;7.60;99.90
52275;DHT22;38228;50.940;4.024;2024-03-02T01:13:15;7.40;99.90
52275;DHT22;38228;50.940;4.024;2024-03-02T01:15:41;7.50;99.90
52275;DHT22;38228;50.940;4.024;2024-03-02T01:18:07;7.40;99.90
52275;DHT22;38228;50.940;4.024;2024-03-02T01:20:33;7.50;99.90
52275;DHT22;38228;50.940;4.024;2024-03-02T01:22:59;7.60;99.90
52275;DHT22;38228;50.940;4.024;2024-03-02T01:25:24;7.60;99.90
52275;DHT22;38228;50.940;4.024;2024-03-02T01:27:50;7.50;99.90
52275;DHT22;38228;50.940;4.024;2024-03-02T01:30:16;7.50;99.90
52275;DHT22;38228;50.940;4.024;2024-03-02T01:32:42;7.50;99.90
52275;DHT22;38228;50.940;4.024;2024-03-02T01:35:08;7.50;99.90
52275;DHT22;38228;50.940;4.024;2024-03-02T01:37:34;7.50;99.90
52275;DHT22;38228;50.940;4.024;2024-03-02T01:40:00;7.40;99.90
52275;DHT22;38228;50.940;4.024;2024-03-02T01:42:26;7.40;99.90
52275;DHT22;38228;50.940;4.024;2024-03-02T01:44:52;7.30;99.90
52275;DHT22;38228;50.940;4.024;2024-03-02T01:47:18;7.30;99.90
52275;DHT22;38228;50.940;4.024;2024-03-02T01:49:43;7.20;99.90
52275;DHT22;38228;50.940;4.024;2024-03-02T01:52:09;7.20;99.90
52275;DHT22;38228;50.940;4.024;2024-03-02T01:54:35;7.10;99.90
52275;DHT22;38228;50.940;4.024;2024-03-02T01:57:00;7.10;99.90
52275;DHT22;38228;50.940;4.024;2024-03-02T01:59:26;7.00;99.90
52275;DHT22;38228;50.940;4.024;2024-03-02T02:01:52;7.00;99.90
52275;DHT22;38228;50.940;4.024;2024-03-02T02:04:18;6.90;99.90
52275;DHT22;38228;50.940;4.024;2024-03-02T02:06:47;6.80;99.90
52275;DHT22;38228;50.940;4.024;2024-03-02T02:09:12;6.80;99.90
52275;DHT22;38228;50.940;4.024;2024-03-02T02:11:38;6.80;99.90
52275;DHT22;38228;50.940;4.024;2024-03-02T02:14:05;6.80;99.90
52275;DHT22;38228;50.940;4.024;2024-03-02T02:16:31;6.80;99.90
52275;DHT22;38228;50.940;4.024;2024-03-02T02:18:57;6.90;99.90
52275;DHT22;38228;50.940;4.024;2024-03-02T02:21:23;6.90;99.90
52275;DHT22;38228;50.940;4.024;2024-03-02T02:23:48;7.00;99.90
52275;DHT22;38228;50.940;4.024;2024-03-02T02:26:15;6.90;99.90
52275;DHT22;38228;50.940;4.024;2024-03-02T02:28:41;7.00;99.90
52275;DHT22;38228;50.940;4.024;2024-03-02T02:31:15;7.00;99.90
52275;DHT22;38228;50.940;4.024;2024-03-02T02:33:42;6.90;99.90
52275;DHT22;38228;50.940;4.024;2024-03-02T02:36:08;6.90;99.90
52275;DHT22;38228;50.940;4.024;2024-03-02T02:38:39;7.00;99.90
52275;DHT22;38228;50.940;4.024;2024-03-02T02:41:06;7.00;99.90
52275;DHT22;38228;50.940;4.024;2024-03-02T02:43:32;7.10;99.90
52275;DHT22;38228;50.940;4.024;2024-03-02T02:45:57;7.20;99.90
52275;DHT22;38228;50.940;4.024;2024-03-02T02:48:23;7.20;99.90
52275;DHT22;38228;50.940;4.024;2024-03-02T02:50:48;7.30;99.90
52275;DHT22;38228;50.940;4.024;2024-03-02T02:53:14;7.30;99.90
52275;DHT22;38228;50.940;4.024;2024-03-02T02:55:40;7.30;99.90
52275;DHT22;38228;50.940;4.024;2024-03-02T02:58:09;7.30;99.90
52275;DHT22;38228;50.940;4.024;2024-03-02T03:00:35;7.30;99.90
52275;DHT22;38228;50.940;4.024;2024-03-02T03:03:02;7.40;99.90
52275;DHT22;38228;50.940;4.024;2024-03-02T03:05:28;7.50;99.90
52275;DHT22;38228;50.940;4.024;2024-03-02T03:07:53;7.40;99.90
52275;DHT22;38228;50.940;4.024;2024-03-02T03:10:19;7.40;99.90
52275;DHT22;38228;50.940;4.024;2024-03-02T03:12:47;7.40;99.90
52275;DHT22;38228;50.940;4.024;2024-03-02T03:15:13;7.40;99.90
52275;DHT22;38228;50.940;4.024;2024-03-02T03:17:39;7.40;99.90
52275;DHT22;38228;50.940;4.024;2024-03-02T03:20:06;7.40;99.90
52275;DHT22;38228;50.940;4.024;2024-03-02T03:22:35;7.50;99.90
52275;DHT22;38228;50.940;4.024;2024-03-02T03:25:01;7.50;99.90
52275;DHT22;38228;50.940;4.024;2024-03-02T03:27:27;7.50;99.90
52275;DHT22;38228;50.940;4.024;2024-03-02T03:29:53;7.50;99.90
52275;DHT22;38228;50.940;4.024;2024-03-02T03:32:19;7.50;99.90
52275;DHT22;38228;50.940;4.024;2024-03-02T03:34:45;7.50;99.90
52275;DHT22;38228;50.940;4.024;2024-03-02T03:37:11;7.50;99.90
52275;DHT22;38228;50.940;4.024;2024-03-02T03:39:37;7.30;99.90
52275;DHT22;38228;50.940;4.024;2024-03-02T03:42:03;7.50;99.90
52275;DHT22;38228;50.940;4.024;2024-03-02T03:44:28;7.50;99.90
52275;DHT22;38228;50.940;4.024;2024-03-02T03:46:54;7.50;99.90
52275;DHT22;38228;50.940;4.024;2024-03-02T03:49:20;7.40;99.90
52275;DHT22;38228;50.940;4.024;2024-03-02T03:51:46;7.40;99.90
52275;DHT22;38228;50.940;4.024;2024-03-02T03:54:11;7.30;99.90
52275;DHT22;38228;50.940;4.024;2024-03-02T03:56:37;7.40;99.90
52275;DHT22;38228;50.940;4.024;2024-03-02T03:59:03;7.40;99.90
52275;DHT22;38228;50.940;4.024;2024-03-02T04:01:30;7.30;99.90
52275;DHT22;38228;50.940;4.024;2024-03-02T04:03:57;7.40;99.90
52275;DHT22;38228;50.940;4.024;2024-03-02T04:06:23;7.40;99.90
52275;DHT22;38228;50.940;4.024;2024-03-02T04:08:49;7.50;99.90
52275;DHT22;38228;50.940;4.024;2024-03-02T04:11:14;7.60;99.90
52275;DHT22;38228;50.940;4.024;2024-03-02T04:13:40;7.60;99.90
52275;DHT22;38228;50.940;4.024;2024-03-02T04:16:06;7.50;99.90
52275;DHT22;38228;50.940;4.024;2024-03-02T04:18:32;7.50;99.90
52275;DHT22;38228;50.940;4.024;2024-03-02T04:20:58;7.40;99.90
52275;DHT22;38228;50.940;4.024;2024-03-02T04:23:26;7.50;99.90
52275;DHT22;38228;50.940;4.024;2024-03-02T04:25:52;7.50;99.90
52275;DHT22;38228;50.940;4.024;2024-03-02T04:28:18;7.40;99.90
52275;DHT22;38228;50.940;4.024;2024-03-02T04:30:44;7.50;99.90
52275;DHT22;38228;50.940;4.024;2024-03-02T04:33:09;7.50;99.90
52275;DHT22;38228;50.940;4.024;2024-03-02T04:35:38;7.50;99.90
52275;DHT22;38228;50.940;4.024;2024-03-02T04:38:04;7.40;99.90
52275;DHT22;38228;50.940;4.024;2024-03-02T04:40:30;7.30;99.90
52275;DHT22;38228;50.940;4.024;2024-03-02T04:42:57;7.30;99.90
52275;DHT22;38228;50.940;4.024;2024-03-02T04:45:24;7.20;99.90
52275;DHT22;38228;50.940;4.024;2024-03-02T04:47:50;7.20;99.90
52275;DHT22;38228;50.940;4.024;2024-03-02T04:50:16;7.00;99.90
52275;DHT22;38228;50.940;4.024;2024-03-02T04:52:41;7.00;99.90
52275;DHT22;38228;50.940;4.024;2024-03-02T04:55:07;6.90;99.90
52275;DHT22;38228;50.940;4.024;2024-03-02T04:57:50;7.00;99.90
52275;DHT22;38228;50.940;4.024;2024-03-02T05:00:16;7.00;99.90
52275;DHT22;38228;50.940;4.024;2024-03-02T05:02:42;7.00;99.90
52275;DHT22;38228;50.940;4.024;2024-03-02T05:05:08;6.90;99.90
52275;DHT22;38228;50.940;4.024;2024-03-02T05:07:34;6.80;99.90
52275;DHT22;38228;50.940;4.024;2024-03-02T05:09:59;6.70;99.90
52275;DHT22;38228;50.940;4.024;2024-03-02T05:12:25;6.70;99.90
52275;DHT22;38228;50.940;4.024;2024-03-02T05:15:10;6.70;99.90
52275;DHT22;38228;50.940;4.024;2024-03-02T05:17:39;6.60;99.90
52275;DHT22;38228;50.940;4.024;2024-03-02T05:20:06;6.50;99.90
52275;DHT22;38228;50.940;4.024;2024-03-02T05:22:36;6.50;99.90
52275;DHT22;38228;50.940;4.024;2024-03-02T05:25:03;6.60;99.90
52275;DHT22;38228;50.940;4.024;2024-03-02T05:27:29;6.50;99.90
52275;DHT22;38228;50.940;4.024;2024-03-02T05:29:54;6.50;99.90
52275;DHT22;38228;50.940;4.024;2024-03-02T05:32:20;6.40;99.90
52275;DHT22;38228;50.940;4.024;2024-03-02T05:34:46;6.40;99.90
52275;DHT22;38228;50.940;4.024;2024-03-02T05:37:12;6.40;99.90
52275;DHT22;38228;50.940;4.024;2024-03-02T05:39:37;6.40;99.90
52275;DHT22;38228;50.940;4.024;2024-03-02T05:42:03;6.30;99.90
52275;DHT22;38228;50.940;4.024;2024-03-02T05:44:29;6.30;99.90
52275;DHT22;38228;50.940;4.024;2024-03-02T05:46:55;6.30;99.90
52275;DHT22;38228;50.940;4.024;2024-03-02T05:49:21;6.20;99.90
52275;DHT22;38228;50.940;4.024;2024-03-02T05:51:47;6.30;99.90
52275;DHT22;38228;50.940;4.024;2024-03-02T05:54:12;6.30;99.90
52275;DHT22;38228;50.940;4.024;2024-03-02T05:56:38;6.40;99.90
52275;DHT22;38228;50.940;4.024;2024-03-02T05:59:04;6.30;99.90
52275;DHT22;38228;50.940;4.024;2024-03-02T06:01:47;6.20;99.90
52275;DHT22;38228;50.940;4.024;2024-03-02T06:04:14;6.20;99.90
52275;DHT22;38228;50.940;4.024;2024-03-02T06:06:40;6.10;99.90
52275;DHT22;38228;50.940;4.024;2024-03-02T06:09:10;6.00;99.90
52275;DHT22;38228;50.940;4.024;2024-03-02T06:11:40;6.10;99.90
52275;DHT22;38228;50.940;4.024;2024-03-02T06:14:07;6.10;99.90
52275;DHT22;38228;50.940;4.024;2024-03-02T06:16:36;6.10;99.90
52275;DHT22;38228;50.940;4.024;2024-03-02T06:19:01;6.10;99.90
52275;DHT22;38228;50.940;4.024;2024-03-02T06:21:27;6.20;99.90
52275;DHT22;38228;50.940;4.024;2024-03-02T06:23:54;6.10;99.90
52275;DHT22;38228;50.940;4.024;2024-03-02T06:26:19;6.20;99.90
52275;DHT22;38228;50.940;4.024;2024-03-02T06:28:46;6.30;99.90
52275;DHT22;38228;50.940;4.024;2024-03-02T06:31:12;6.10;99.90
52275;DHT22;38228;50.940;4.024;2024-03-02T06:33:37;6.20;99.90
52275;DHT22;38228;50.940;4.024;2024-03-02T06:36:03;6.10;99.90
52275;DHT22;38228;50.940;4.024;2024-03-02T06:38:29;6.00;99.90
52275;DHT22;38228;50.940;4.024;2024-03-02T06:40:57;6.00;99.90
52275;DHT22;38228;50.940;4.024;2024-03-02T06:43:23;5.90;99.90
52275;DHT22;38228;50.940;4.024;2024-03-02T06:45:52;6.00;99.90
52275;DHT22;38228;50.940;4.024;2024-03-02T06:48:18;6.00;99.90
52275;DHT22;38228;50.940;4.024;2024-03-02T06:50:49;6.00;99.90
52275;DHT22;38228;50.940;4.024;2024-03-02T06:53:15;6.00;99.90
52275;DHT22;38228;50.940;4.024;2024-03-02T06:55:43;6.10;99.90
52275;DHT22;38228;50.940;4.024;2024-03-02T06:58:13;6.00;99.90
52275;DHT22;38228;50.940;4.024;2024-03-02T07:00:40;6.00;99.90
52275;DHT22;38228;50.940;4.024;2024-03-02T07:03:06;5.90;99.90
52275;DHT22;38228;50.940;4.024;2024-03-02T07:05:32;6.00;99.90
52275;DHT22;38228;50.940;4.024;2024-03-02T07:07:58;6.10;99.90
52275;DHT22;38228;50.940;4.024;2024-03-02T07:10:23;6.00;99.90
52275;DHT22;38228;50.940;4.024;2024-03-02T07:12:49;6.00;99.90
52275;DHT22;38228;50.940;4.024;2024-03-02T07:15:15;6.10;99.90
52275;DHT22;38228;50.940;4.024;2024-03-02T07:17:52;6.10;99.90
52275;DHT22;38228;50.940;4.024;2024-03-02T07:20:18;6.10;99.90
52275;DHT22;38228;50.940;4.024;2024-03-02T07:22:44;6.10;99.90
52275;DHT22;38228;50.940;4.024;2024-03-02T07:25:09;6.20;99.90
52275;DHT22;38228;50.940;4.024;2024-03-02T07:27:35;6.30;99.90
52275;DHT22;38228;50.940;4.024;2024-03-02T07:30:03;6.40;99.90
52275;DHT22;38228;50.940;4.024;2024-03-02T07:32:28;6.50;99.90
52275;DHT22;38228;50.940;4.024;2024-03-02T07:34:54;6.50;99.90
52275;DHT22;38228;50.940;4.024;2024-03-02T07:37:21;6.50;99.90
52275;DHT22;38228;50.940;4.024;2024-03-02T07:39:47;6.60;99.90
52275;DHT22;38228;50.940;4.024;2024-03-02T07:42:13;6.60;99.90
52275;DHT22;38228;50.940;4.024;2024-03-02T07:44:39;6.60;99.90
52275;DHT22;38228;50.940;4.024;2024-03-02T07:47:05;6.60;99.90
52275;DHT22;38228;50.940;4.024;2024-03-02T07:49:30;6.80;99.90
52275;DHT22;38228;50.940;4.024;2024-03-02T07:51:56;7.00;99.90
52275;DHT22;38228;50.940;4.024;2024-03-02T07:54:22;7.00;99.90
52275;DHT22;38228;50.940;4.024;2024-03-02T07:56:48;7.10;99.90
52275;DHT22;38228;50.940;4.024;2024-03-02T07:59:14;7.20;99.90
52275;DHT22;38228;50.940;4.024;2024-03-02T08:01:39;7.20;99.90
52275;DHT22;38228;50.940;4.024;2024-03-02T08:04:06;7.20;99.90
52275;DHT22;38228;50.940;4.024;2024-03-02T08:06:32;7.40;99.90
52275;DHT22;38228;50.940;4.024;2024-03-02T08:08:59;7.40;99.90
52275;DHT22;38228;50.940;4.024;2024-03-02T08:11:25;7.50;99.90
52275;DHT22;38228;50.940;4.024;2024-03-02T08:13:52;7.70;99.90
52275;DHT22;38228;50.940;4.024;2024-03-02T08:16:21;7.80;99.90
52275;DHT22;38228;50.940;4.024;2024-03-02T08:18:48;7.80;99.90
52275;DHT22;38228;50.940;4.024;2024-03-02T08:21:14;7.90;99.90
52275;DHT22;38228;50.940;4.024;2024-03-02T08:23:40;8.00;99.90
52275;DHT22;38228;50.940;4.024;2024-03-02T08:26:10;8.10;99.90
52275;DHT22;38228;50.940;4.024;2024-03-02T08:28:36;8.10;99.90
52275;DHT22;38228;50.940;4.024;2024-03-02T08:31:03;8.30;99.90
52275;DHT22;38228;50.940;4.024;2024-03-02T08:33:29;8.30;99.90
52275;DHT22;38228;50.940;4.024;2024-03-02T08:35:56;8.40;99.90
52275;DHT22;38228;50.940;4.024;2024-03-02T08:38:25;8.40;99.90
52275;DHT22;38228;50.940;4.024;2024-03-02T08:40:51;8.40;99.90
52275;DHT22;38228;50.940;4.024;2024-03-02T08:43:20;8.60;99.90
52275;DHT22;38228;50.940;4.024;2024-03-02T08:45:45;8.80;99.90
52275;DHT22;38228;50.940;4.024;2024-03-02T08:48:12;8.80;99.90
52275;DHT22;38228;50.940;4.024;2024-03-02T08:50:38;8.70;99.90
52275;DHT22;38228;50.940;4.024;2024-03-02T08:53:04;8.50;99.90
52275;DHT22;38228;50.940;4.024;2024-03-02T08:55:30;8.50;99.90
52275;DHT22;38228;50.940;4.024;2024-03-02T08:57:56;8.60;99.90
52275;DHT22;38228;50.940;4.024;2024-03-02T09:00:23;8.70;99.90
52275;DHT22;38228;50.940;4.024;2024-03-02T09:02:49;8.80;99.90
52275;DHT22;38228;50.940;4.024;2024-03-02T09:05:15;8.90;99.90
52275;DHT22;38228;50.940;4.024;2024-03-02T09:07:41;8.80;99.90
52275;DHT22;38228;50.940;4.024;2024-03-02T09:10:07;8.90;99.90
52275;DHT22;38228;50.940;4.024;2024-03-02T09:12:34;8.90;99.90
52275;DHT22;38228;50.940;4.024;2024-03-02T09:15:01;9.10;99.90
52275;DHT22;38228;50.940;4.024;2024-03-02T09:17:27;9.30;99.90
52275;DHT22;38228;50.940;4.024;2024-03-02T09:19:53;9.50;99.90
52275;DHT22;38228;50.940;4.024;2024-03-02T09:22:19;9.80;99.90
52275;DHT22;38228;50.940;4.024;2024-03-02T09:24:45;9.90;99.90
52275;DHT22;38228;50.940;4.024;2024-03-02T09:27:11;10.20;99.90
52275;DHT22;38228;50.940;4.024;2024-03-02T09:29:36;10.30;99.90
52275;DHT22;38228;50.940;4.024;2024-03-02T09:32:03;10.40;99.90
52275;DHT22;38228;50.940;4.024;2024-03-02T09:34:29;10.60;99.90
52275;DHT22;38228;50.940;4.024;2024-03-02T09:36:55;10.70;99.90
52275;DHT22;38228;50.940;4.024;2024-03-02T09:39:20;10.70;99.90
52275;DHT22;38228;50.940;4.024;2024-03-02T09:41:49;10.80;99.90
52275;DHT22;38228;50.940;4.024;2024-03-02T09:44:14;10.70;99.90
52275;DHT22;38228;50.940;4.024;2024-03-02T09:46:40;10.60;99.90
52275;DHT22;38228;50.940;4.024;2024-03-02T09:49:10;10.60;99.90
52275;DHT22;38228;50.940;4.024;2024-03-02T09:51:37;10.50;99.90
52275;DHT22;38228;50.940;4.024;2024-03-02T09:54:03;10.50;99.90
52275;DHT22;38228;50.940;4.024;2024-03-02T09:56:29;10.50;99.90
52275;DHT22;38228;50.940;4.024;2024-03-02T09:58:55;10.60;99.90
52275;DHT22;38228;50.940;4.024;2024-03-02T10:01:21;10.70;99.90
52275;DHT22;38228;50.940;4.024;2024-03-02T10:03:47;10.90;99.90
52275;DHT22;38228;50.940;4.024;2024-03-02T10:06:26;11.00;99.90
52275;DHT22;38228;50.940;4.024;2024-03-02T10:08:53;11.00;99.90
52275;DHT22;38228;50.940;4.024;2024-03-02T10:11:40;11.00;99.90
52275;DHT22;38228;50.940;4.024;2024-03-02T10:16:37;11.10;99.90
52275;DHT22;38228;50.940;4.024;2024-03-02T10:19:23;11.20;99.90
52275;DHT22;38228;50.940;4.024;2024-03-02T10:21:52;11.40;99.90
52275;DHT22;38228;50.940;4.024;2024-03-02T10:24:20;11.40;99.90
52275;DHT22;38228;50.940;4.024;2024-03-02T10:26:46;11.40;99.90
52275;DHT22;38228;50.940;4.024;2024-03-02T10:29:12;11.40;99.90
52275;DHT22;38228;50.940;4.024;2024-03-02T10:31:39;11.20;99.90
52275;DHT22;38228;50.940;4.024;2024-03-02T10:34:06;11.40;99.90
52275;DHT22;38228;50.940;4.024;2024-03-02T10:36:35;11.40;99.90
52275;DHT22;38228;50.940;4.024;2024-03-02T10:39:02;11.60;99.90
52275;DHT22;38228;50.940;4.024;2024-03-02T10:41:35;11.50;99.90
52275;DHT22;38228;50.940;4.024;2024-03-02T10:44:06;11.50;99.90
52275;DHT22;38228;50.940;4.024;2024-03-02T10:46:34;11.80;99.90
52275;DHT22;38228;50.940;4.024;2024-03-02T10:49:02;11.80;99.90
52275;DHT22;38228;50.940;4.024;2024-03-02T10:51:29;12.00;99.90
52275;DHT22;38228;50.940;4.024;2024-03-02T10:53:58;12.10;99.90
52275;DHT22;38228;50.940;4.024;2024-03-02T10:56:31;12.10;99.90
52275;DHT22;38228;50.940;4.024;2024-03-02T11:01:32;12.20;99.90
52275;DHT22;38228;50.940;4.024;2024-03-02T11:04:00;12.30;99.90
52275;DHT22;38228;50.940;4.024;2024-03-02T11:06:28;12.40;99.90
52275;DHT22;38228;50.940;4.024;2024-03-02T11:08:56;12.40;99.90
52275;DHT22;38228;50.940;4.024;2024-03-02T11:11:30;12.50;99.90
52275;DHT22;38228;50.940;4.024;2024-03-02T11:14:01;12.60;99.90
52275;DHT22;38228;50.940;4.024;2024-03-02T11:16:37;12.70;99.90
52275;DHT22;38228;50.940;4.024;2024-03-02T11:19:14;12.90;99.90
52275;DHT22;38228;50.940;4.024;2024-03-02T11:21:40;13.20;99.90
52275;DHT22;38228;50.940;4.024;2024-03-02T11:26:51;13.00;99.90
52275;DHT22;38228;50.940;4.024;2024-03-02T11:29:46;12.80;99.90
52275;DHT22;38228;50.940;4.024;2024-03-02T11:32:20;12.90;99.90
52275;DHT22;38228;50.940;4.024;2024-03-02T11:34:48;13.00;99.90
52275;DHT22;38228;50.940;4.024;2024-03-02T11:37:18;13.10;99.90
52275;DHT22;38228;50.940;4.024;2024-03-02T11:39:46;13.20;99.90
52275;DHT22;38228;50.940;4.024;2024-03-02T11:42:14;13.00;99.90
52275;DHT22;38228;50.940;4.024;2024-03-02T11:44:47;13.00;99.90
52275;DHT22;38228;50.940;4.024;2024-03-02T11:47:17;12.80;99.90
52275;DHT22;38228;50.940;4.024;2024-03-02T11:49:50;13.00;99.90
52275;DHT22;38228;50.940;4.024;2024-03-02T11:52:20;13.00;99.90
52275;DHT22;38228;50.940;4.024;2024-03-02T11:54:48;12.80;99.90
52275;DHT22;38228;50.940;4.024;2024-03-02T11:57:18;12.60;99.90
52275;DHT22;38228;50.940;4.024;2024-03-02T11:59:45;12.50;99.90
52275;DHT22;38228;50.940;4.024;2024-03-02T12:02:21;12.50;99.90
52275;DHT22;38228;50.940;4.024;2024-03-02T12:04:48;12.50;99.90
52275;DHT22;38228;50.940;4.024;2024-03-02T12:07:21;12.30;99.90
52275;DHT22;38228;50.940;4.024;2024-03-02T12:09:59;12.10;99.90
52275;DHT22;38228;50.940;4.024;2024-03-02T12:12:26;12.10;99.90
52275;DHT22;38228;50.940;4.024;2024-03-02T12:14:53;12.00;99.90
52275;DHT22;38228;50.940;4.024;2024-03-02T12:17:21;12.10;99.90
52275;DHT22;38228;50.940;4.024;2024-03-02T12:19:47;12.20;99.90
52275;DHT22;38228;50.940;4.024;2024-03-02T12:22:13;12.10;99.90
52275;DHT22;38228;50.940;4.024;2024-03-02T12:24:39;12.00;99.90
52275;DHT22;38228;50.940;4.024;2024-03-02T12:27:11;12.00;99.90
52275;DHT22;38228;50.940;4.024;2024-03-02T12:29:38;12.10;99.90
52275;DHT22;38228;50.940;4.024;2024-03-02T12:32:07;12.20;99.90
52275;DHT22;38228;50.940;4.024;2024-03-02T12:34:33;12.10;99.90
52275;DHT22;38228;50.940;4.024;2024-03-02T12:36:59;12.00;99.90
52275;DHT22;38228;50.940;4.024;2024-03-02T12:39:25;12.00;99.90
52275;DHT22;38228;50.940;4.024;2024-03-02T12:41:52;12.00;99.90
52275;DHT22;38228;50.940;4.024;2024-03-02T12:44:19;12.00;99.90
52275;DHT22;38228;50.940;4.024;2024-03-02T12:46:46;12.00;99.90
52275;DHT22;38228;50.940;4.024;2024-03-02T12:49:13;12.00;99.90
52275;DHT22;38228;50.940;4.024;2024-03-02T12:51:40;12.00;99.90
52275;DHT22;38228;50.940;4.024;2024-03-02T12:54:10;12.00;99.90
52275;DHT22;38228;50.940;4.024;2024-03-02T12:56:41;12.00;99.90
52275;DHT22;38228;50.940;4.024;2024-03-02T12:59:18;12.00;99.90
52275;DHT22;38228;50.940;4.024;2024-03-02T13:01:54;12.10;99.90
52275;DHT22;38228;50.940;4.024;2024-03-02T13:04:27;12.10;99.90
52275;DHT22;38228;50.940;4.024;2024-03-02T13:06:55;12.20;99.90
52275;DHT22;38228;50.940;4.024;2024-03-02T13:09:23;12.30;99.90
52275;DHT22;38228;50.940;4.024;2024-03-02T13:11:49;12.20;99.90
52275;DHT22;38228;50.940;4.024;2024-03-02T13:14:15;12.10;99.90
52275;DHT22;38228;50.940;4.024;2024-03-02T13:16:42;12.20;99.90
52275;DHT22;38228;50.940;4.024;2024-03-02T13:19:08;12.40;99.90
52275;DHT22;38228;50.940;4.024;2024-03-02T13:21:35;12.50;99.90
52275;DHT22;38228;50.940;4.024;2024-03-02T13:24:01;12.50;99.90
52275;DHT22;38228;50.940;4.024;2024-03-02T13:26:27;12.70;99.90
52275;DHT22;38228;50.940;4.024;2024-03-02T13:28:53;13.00;99.90
52275;DHT22;38228;50.940;4.024;2024-03-02T13:31:19;12.90;99.90
52275;DHT22;38228;50.940;4.024;2024-03-02T13:33:45;12.90;99.90
52275;DHT22;38228;50.940;4.024;2024-03-02T13:36:10;12.80;99.90
52275;DHT22;38228;50.940;4.024;2024-03-02T13:38:36;12.70;99.90
52275;DHT22;38228;50.940;4.024;2024-03-02T13:41:02;12.80;99.90
52275;DHT22;38228;50.940;4.024;2024-03-02T13:43:31;12.80;99.90
52275;DHT22;38228;50.940;4.024;2024-03-02T13:45:58;12.70;99.90
52275;DHT22;38228;50.940;4.024;2024-03-02T13:48:24;12.50;99.90
52275;DHT22;38228;50.940;4.024;2024-03-02T13:50:53;12.50;99.90
52275;DHT22;38228;50.940;4.024;2024-03-02T13:53:19;12.60;99.90
52275;DHT22;38228;50.940;4.024;2024-03-02T13:55:45;12.60;99.90
52275;DHT22;38228;50.940;4.024;2024-03-02T13:58:11;12.60;99.90
52275;DHT22;38228;50.940;4.024;2024-03-02T14:00:38;12.70;99.90
52275;DHT22;38228;50.940;4.024;2024-03-02T14:03:07;12.80;99.90
52275;DHT22;38228;50.940;4.024;2024-03-02T14:05:33;12.90;99.90
52275;DHT22;38228;50.940;4.024;2024-03-02T14:07:59;12.70;99.90
52275;DHT22;38228;50.940;4.024;2024-03-02T14:10:26;12.70;99.90
52275;DHT22;38228;50.940;4.024;2024-03-02T14:12:58;12.80;99.90
52275;DHT22;38228;50.940;4.024;2024-03-02T14:15:24;12.90;99.90
52275;DHT22;38228;50.940;4.024;2024-03-02T14:17:50;12.90;99.90
52275;DHT22;38228;50.940;4.024;2024-03-02T14:20:16;12.90;99.90
52275;DHT22;38228;50.940;4.024;2024-03-02T14:22:47;13.00;99.90
52275;DHT22;38228;50.940;4.024;2024-03-02T14:25:13;13.00;99.90
52275;DHT22;38228;50.940;4.024;2024-03-02T14:27:39;13.00;99.90
52275;DHT22;38228;50.940;4.024;2024-03-02T14:30:05;13.10;99.90
52275;DHT22;38228;50.940;4.024;2024-03-02T14:32:32;13.00;99.90
52275;DHT22;38228;50.940;4.024;2024-03-02T14:34:58;13.00;99.90
52275;DHT22;38228;50.940;4.024;2024-03-02T14:37:23;13.10;99.90
52275;DHT22;38228;50.940;4.024;2024-03-02T14:39:49;13.00;99.90
52275;DHT22;38228;50.940;4.024;2024-03-02T14:42:16;12.90;99.90
52275;DHT22;38228;50.940;4.024;2024-03-02T14:44:42;12.90;99.90
52275;DHT22;38228;50.940;4.024;2024-03-02T14:47:08;12.80;99.90
52275;DHT22;38228;50.940;4.024;2024-03-02T14:49:33;12.70;99.90
52275;DHT22;38228;50.940;4.024;2024-03-02T14:52:02;12.80;99.90
52275;DHT22;38228;50.940;4.024;2024-03-02T14:54:28;12.80;99.90
52275;DHT22;38228;50.940;4.024;2024-03-02T14:56:54;12.80;99.90
52275;DHT22;38228;50.940;4.024;2024-03-02T14:59:22;13.00;99.90
52275;DHT22;38228;50.940;4.024;2024-03-02T15:01:48;13.00;99.90
52275;DHT22;38228;50.940;4.024;2024-03-02T15:04:14;12.90;99.90
52275;DHT22;38228;50.940;4.024;2024-03-02T15:06:42;12.90;99.90
52275;DHT22;38228;50.940;4.024;2024-03-02T15:09:08;12.90;99.90
52275;DHT22;38228;50.940;4.024;2024-03-02T15:11:34;12.80;99.90
52275;DHT22;38228;50.940;4.024;2024-03-02T15:14:00;12.90;99.90
52275;DHT22;38228;50.940;4.024;2024-03-02T15:16:26;12.70;99.90
52275;DHT22;38228;50.940;4.024;2024-03-02T15:18:53;12.70;99.90
52275;DHT22;38228;50.940;4.024;2024-03-02T15:21:19;12.80;99.90
52275;DHT22;38228;50.940;4.024;2024-03-02T15:23:45;12.70;99.90
52275;DHT22;38228;50.940;4.024;2024-03-02T15:26:11;12.80;99.90
52275;DHT22;38228;50.940;4.024;2024-03-02T15:28:37;12.80;99.90
52275;DHT22;38228;50.940;4.024;2024-03-02T15:31:03;12.80;99.90
52275;DHT22;38228;50.940;4.024;2024-03-02T15:33:31;12.70;99.90
52275;DHT22;38228;50.940;4.024;2024-03-02T15:35:58;12.70;99.90
52275;DHT22;38228;50.940;4.024;2024-03-02T15:38:26;12.70;99.90
52275;DHT22;38228;50.940;4.024;2024-03-02T15:40:52;12.70;99.90
52275;DHT22;38228;50.940;4.024;2024-03-02T15:43:18;12.80;99.90
52275;DHT22;38228;50.940;4.024;2024-03-02T15:45:44;12.70;99.90
52275;DHT22;38228;50.940;4.024;2024-03-02T15:48:09;12.60;99.90
52275;DHT22;38228;50.940;4.024;2024-03-02T15:50:35;12.60;99.90
52275;DHT22;38228;50.940;4.024;2024-03-02T15:53:03;12.50;99.90